createdAt,value
2018-10-11T00:00:03.009Z,10.8
2018-10-11T00:15:02.396Z,10.4
2018-10-11T00:30:02.856Z,10
2018-10-11T00:45:03.270Z,9.6
2018-10-11T01:00:02.655Z,9.4
2018-10-11T01:15:03.029Z,8.9
2018-10-11T01:30:02.568Z,9.1
2018-10-11T01:45:03.034Z,8.9
2018-10-11T02:00:02.406Z,8.4
2018-10-11T02:15:02.799Z,8
2018-10-11T02:30:03.848Z,8.4
2018-10-11T02:45:04.909Z,8.6
2018-10-11T03:00:03.272Z,8.6
2018-10-11T03:15:02.764Z,8.7
2018-10-11T03:30:03.202Z,8.7
2018-10-11T03:45:02.604Z,8.6
2018-10-11T04:00:02.995Z,8.4
2018-10-11T04:15:02.497Z,8.5
2018-10-11T04:30:03.105Z,8.5
2018-10-11T04:45:02.569Z,8.5
2018-10-11T05:00:02.978Z,8.5
2018-10-11T05:15:02.402Z,8.4
2018-10-11T05:30:02.836Z,8.4
2018-10-11T05:45:03.214Z,8.4
2018-10-11T06:00:02.568Z,8.4
2018-10-11T06:15:02.906Z,8.6
2018-10-11T06:30:02.467Z,8.9
2018-10-11T06:45:02.850Z,9.3
2018-10-11T07:00:03.220Z,9.8
2018-10-11T07:15:02.566Z,10.2
2018-10-11T07:30:02.995Z,11
2018-10-11T07:45:02.368Z,11.6
2018-10-11T08:00:07.698Z,12.5
2018-10-11T08:15:03.049Z,13.3
2018-10-11T08:30:02.467Z,14
2018-10-11T08:45:02.920Z,14.8
2018-10-11T09:00:03.263Z,15.9
2018-10-11T09:15:02.589Z,16.5
2018-10-11T09:30:03.029Z,17.2
2018-10-11T09:45:02.381Z,17.9
2018-10-11T10:00:02.739Z,18.5
2018-10-11T10:15:03.115Z,19.6
2018-10-11T10:30:02.554Z,20.2
2018-10-11T10:45:02.894Z,20.8
2018-10-11T11:00:03.274Z,21.4
2018-10-11T11:15:02.675Z,21.7
2018-10-11T11:30:03.142Z,22.2
2018-10-11T11:45:02.498Z,23.1
2018-10-11T12:00:02.892Z,22.1
2018-10-11T12:15:03.310Z,22.6
2018-10-11T12:30:02.821Z,22.8
2018-10-11T12:45:03.218Z,22.5
2018-10-11T13:00:02.668Z,22.8
2018-10-11T13:15:03.051Z,23.2
2018-10-11T13:30:02.482Z,23.2
2018-10-11T13:45:02.867Z,23.2
2018-10-11T14:00:03.291Z,23.3
2018-10-11T14:15:02.663Z,23.2
2018-10-11T14:30:03.090Z,23.1
2018-10-11T14:45:02.442Z,22.8
2018-10-11T15:00:02.851Z,22.4
2018-10-11T15:15:03.244Z,22
2018-10-11T15:30:02.696Z,21.3
2018-10-11T15:45:03.081Z,20.5
2018-10-11T16:00:02.463Z,19.4
2018-10-11T16:15:02.853Z,18.1
2018-10-11T16:30:03.308Z,17.1
2018-10-11T16:45:02.665Z,16.2
2018-10-11T17:00:03.050Z,15.4
2018-10-11T17:15:02.461Z,14.9
2018-10-11T17:30:02.901Z,14.5
2018-10-11T17:45:03.252Z,14.1
2018-10-11T18:00:02.608Z,13.7
2018-10-11T18:15:02.971Z,13.5
2018-10-11T18:30:02.391Z,13.1
2018-10-11T18:45:02.764Z,13
2018-10-11T19:00:03.140Z,12.7
2018-10-11T19:15:02.471Z,12.1
2018-10-11T19:30:02.936Z,12.1
2018-10-11T19:45:03.290Z,11.9
2018-10-11T20:00:02.673Z,11.7
2018-10-11T20:15:03.121Z,11.7
2018-10-11T20:30:02.581Z,11.3
2018-10-11T20:45:02.968Z,11.4
2018-10-11T21:00:02.368Z,11.2
2018-10-11T21:15:02.752Z,11.1
2018-10-11T21:30:03.167Z,10.8
2018-10-11T21:45:02.753Z,10.6
2018-10-11T22:00:03.310Z,10.1
2018-10-11T22:15:02.829Z,10.1
2018-10-11T22:30:04.842Z,10.1
2018-10-11T22:45:03.226Z,10.1
2018-10-11T23:00:02.576Z,10
2018-10-11T23:15:02.975Z,9.9
2018-10-11T23:30:02.495Z,9.9
2018-10-11T23:45:02.964Z,9.8
